Airfield :







YOU CAN JOIN US ON...

 
LOGIN :

Register | Disclaimer

   EN    FR    IT 

 









Legend :    VFR   Marginal VFR   IFR   Intensive IFR   Very Intensive IFR
Visi :
Ceiling :
>= 8 km
>= 3000ft
5 to 8 km
1000 to 3000 ft
1500m to 5 km
500 to 1000 ft
800 to 1500m
200 to 500 ft
< 800m
< 200 ft
Symbols :   Thunderstorms  Fog  Heavy snow  Heavy precipitations  Wind > 20 kt







- Airport Elevation : 322 ft


KDAW - Skyhaven

CURRENT METAR :
  • 181651Z AUTO 32007KT 10SM FEW005 BKN027 BKN031 22/21 A2974 RMK AO2 RAE13 SLP067 P0000 T02220211

EXPIRED METARs :
  • 181615Z AUTO 36006KT 10SM SCT005 OVC023 21/21 A2972 RMK AO2 RAE13 PRESFR P0000 T02110211
  • 181551Z AUTO 27003KT 10SM -RA BKN004 BKN047 OVC065 21/21 A2975 RMK AO2 SLP071 P0012 T02060206
  • 181507Z AUTO 34006KT 3SM +RA BR SCT004 BKN070 OVC110 20/20 A2975 RMK AO2 LTG DSNT S P0007 T02000200
  • 181451Z AUTO 05003KT 3SM RA BR FEW049 BKN090 OVC110 19/19 A2974 RMK AO2 SLP068 P0020 60055 T01940194 56028
  • 181441Z AUTO 07003KT 3SM RA BR FEW055 BKN080 OVC100 20/20 A2975 RMK AO2 P0017 T02000200
  • 181422Z AUTO 32006KT 2 1/2SM +RA BR SCT004 BKN050 OVC095 20/20 A2978 RMK AO2 P0010 T02000200
  • 181359Z AUTO 30006KT 4SM RA BR BKN004 BKN070 OVC100 20/20 A2979 RMK AO2 PRESRR P0001 T02000200

TAF N/A
KZBW FIR / North America



MET'MAP, your aeronautical weather chart ! - Copyright ORBIFLY December 2007 - Disclaimer

ORBIFLY MET'MAP TEAM :

Programming & Development : Alexandra Zaïnal
Concept & Development : Baudouin d'Aumeries
Co-Development & Prog : Marc-Olivier Méhu
Technical & hardware support : Manuel Goepfert

Contact : metmap@orbifly.com




SOURCES & CREDITS :

   NOAA